createdAt,value
2018-03-11T17:46:21.444Z,26.84
2018-03-11T17:52:12.161Z,19.21
2018-03-11T17:58:02.795Z,19.09
2018-03-11T18:03:53.411Z,24.03
2018-03-11T18:09:44.208Z,36.73
2018-03-11T18:15:34.734Z,29.05
2018-03-11T18:21:25.419Z,38.8
2018-03-11T18:27:16.140Z,35.91
2018-03-11T18:33:06.774Z,34.4
2018-03-11T18:38:57.376Z,53.94
2018-03-11T18:44:48.054Z,45.95
2018-03-11T18:50:38.700Z,43.58
2018-03-11T18:56:29.333Z,29.07
2018-03-11T19:02:19.985Z,45.59
2018-03-11T19:08:10.682Z,37.7
2018-03-11T19:14:01.363Z,24.81
2018-03-11T19:19:51.983Z,23.28
2018-03-11T19:25:42.644Z,38.14
2018-03-11T19:31:33.323Z,32.35
2018-03-11T19:37:24.009Z,27.08
2018-03-11T19:43:14.626Z,26.71
2018-03-11T19:49:05.315Z,21.08
2018-03-11T19:54:55.938Z,24.94
2018-03-11T20:00:46.623Z,24.28
2018-03-11T20:06:37.260Z,26.13
2018-03-11T20:12:27.984Z,22.3
2018-03-11T20:18:18.569Z,21.1
2018-03-11T20:24:09.275Z,22.66
2018-03-11T20:29:59.915Z,23.64
2018-03-11T20:35:50.554Z,14.94
2018-03-11T20:41:41.207Z,11.54
2018-03-11T20:47:31.842Z,18.13
2018-03-11T20:53:22.556Z,18.36
2018-03-11T20:59:13.286Z,17.5
2018-03-11T21:05:03.887Z,12.07
2018-03-11T21:10:54.490Z,16.21
2018-03-11T21:16:45.178Z,15.99
2018-03-11T21:22:35.885Z,13.01
2018-03-11T21:28:26.528Z,21.03
2018-03-11T21:34:17.111Z,15.22
2018-03-11T21:40:07.834Z,15.15
2018-03-11T21:45:58.451Z,14.37
2018-03-11T21:49:49.074Z,12.66
2018-03-11T21:55:39.670Z,17.41
2018-03-11T22:01:30.310Z,13.11
2018-03-11T22:07:20.954Z,11.99
2018-03-11T22:13:11.689Z,12.4
2018-03-11T22:19:02.263Z,11.98
2018-03-11T22:24:52.928Z,13.77
2018-03-11T22:30:43.613Z,11.25
2018-03-11T22:36:34.266Z,8.71
2018-03-11T22:42:24.923Z,10.38
2018-03-11T22:48:15.513Z,14.74
2018-03-11T22:54:06.225Z,12.9
2018-03-11T22:59:56.905Z,15.69
2018-03-11T23:05:47.501Z,7.43
2018-03-11T23:11:38.166Z,6.84
2018-03-11T23:17:28.818Z,6.55
2018-03-11T23:23:19.528Z,6.53
2018-03-11T23:26:49.050Z,15.5
2018-03-11T23:32:39.655Z,18.42
2018-03-11T23:38:30.344Z,9.05
2018-03-11T23:44:20.992Z,10.16
2018-03-11T23:50:11.630Z,6.57
2018-03-11T23:56:02.265Z,8.2
